Time;durP1;ratioP1;P1;durP2;ratioP2;P2;SDS_P1;SDS_P2;PMS_P1;PMS_P2;Temp;Humidity;BMP_temperature;BMP_pressure;BME280_temperature;BME280_humidity;BME280_pressure;Samples;Min_cycle;Max_cycle;Signal;HPM_P1;HPM_P2
2022/08/06 00:02:26;;;;;;;2.80;1.20;;;12.90;99.90;;;;;;5052009;28;20199;-68
2022/08/06 00:04:53;;;;;;;4.47;1.93;;;13.10;99.90;;;;;;5047591;28;20199;-68
2022/08/06 00:07:20;;;;;;;1.60;1.03;;;13.20;99.90;;;;;;5051947;28;20573;-68
2022/08/06 00:09:47;;;;;;;2.93;1.27;;;13.10;99.90;;;;;;5051729;28;20658;-68
2022/08/06 00:12:14;;;;;;;3.17;1.47;;;12.80;99.90;;;;;;5051804;28;20205;-69
2022/08/06 00:14:41;;;;;;;3.17;1.53;;;12.60;99.90;;;;;;5051533;28;20556;-68
2022/08/06 00:17:09;;;;;;;2.30;1.47;;;12.70;99.90;;;;;;5051796;28;20199;-68
2022/08/06 00:19:36;;;;;;;1.30;1.20;;;12.90;99.90;;;;;;5046318;28;20214;-68
2022/08/06 00:22:03;;;;;;;3.10;1.43;;;12.80;99.90;;;;;;5032090;28;20195;-68
2022/08/06 00:24:30;;;;;;;1.33;1.23;;;12.80;99.90;;;;;;5032109;28;20210;-68
2022/08/06 00:26:57;;;;;;;1.93;1.40;;;12.70;99.90;;;;;;5050981;28;20570;-68
2022/08/06 00:29:23;;;;;;;2.20;1.20;;;12.70;99.90;;;;;;5051777;28;20207;-68
2022/08/06 00:31:50;;;;;;;1.20;1.20;;;12.40;99.90;;;;;;5051260;28;20604;-68
2022/08/06 00:34:18;;;;;;;1.47;1.37;;;12.50;99.90;;;;;;5051668;28;20213;-68
2022/08/06 00:36:45;;;;;;;1.63;1.33;;;12.50;99.90;;;;;;5054058;28;20217;-68
2022/08/06 00:39:12;;;;;;;2.67;1.43;;;12.60;99.90;;;;;;5055690;28;20203;-68
2022/08/06 00:41:39;;;;;;;1.63;1.20;;;12.40;99.90;;;;;;5054995;28;20543;-68
2022/08/06 00:44:06;;;;;;;2.57;1.60;;;12.50;99.90;;;;;;5038830;28;20212;-68
2022/08/06 00:46:33;;;;;;;2.47;1.33;;;12.60;99.90;;;;;;5048935;28;20199;-68
2022/08/06 00:49:00;;;;;;;1.30;1.30;;;12.30;99.90;;;;;;5055612;28;20202;-68
2022/08/06 00:51:28;;;;;;;2.13;1.17;;;12.10;99.90;;;;;;5054561;28;20222;-68
2022/08/06 00:53:55;;;;;;;1.67;1.57;;;12.00;99.90;;;;;;5055364;28;20203;-68
2022/08/06 00:56:22;;;;;;;1.60;1.50;;;12.10;99.90;;;;;;5054958;28;20284;-68
2022/08/06 00:58:48;;;;;;;1.80;1.70;;;12.20;99.90;;;;;;5049500;28;20566;-69
2022/08/06 01:01:15;;;;;;;3.30;1.80;;;12.10;99.90;;;;;;5044285;28;20229;-68
2022/08/06 01:03:42;;;;;;;3.40;1.63;;;12.20;99.90;;;;;;5055243;28;20214;-68
2022/08/06 01:06:09;;;;;;;4.27;1.80;;;12.30;99.90;;;;;;5048493;28;20203;-68
2022/08/06 01:08:37;;;;;;;6.37;1.73;;;12.40;99.90;;;;;;5054557;28;20206;-68
2022/08/06 01:11:04;;;;;;;1.80;1.53;;;12.40;99.90;;;;;;5054460;28;20664;-69
2022/08/06 01:13:31;;;;;;;3.27;1.47;;;12.20;99.90;;;;;;5054755;28;20672;-68
2022/08/06 01:16:08;;;;;;;2.30;1.50;;;12.10;99.90;;;;;;5054830;28;20222;-68
2022/08/06 01:18:42;;;;;;;2.47;1.73;;;12.20;99.90;;;;;;5054477;28;20202;-68
2022/08/06 01:21:23;;;;;;;3.77;1.90;;;12.30;99.90;;;;;;5046622;28;20195;-68
2022/08/06 01:24:30;;;;;;;3.43;1.50;;;12.10;99.90;;;;;;5054496;28;20207;-68
2022/08/06 01:27:06;;;;;;;2.80;1.70;;;12.10;99.90;;;;;;5054313;28;20202;-68
2022/08/06 01:29:38;;;;;;;2.60;1.60;;;11.90;99.90;;;;;;5054613;28;20202;-68
2022/08/06 01:32:10;;;;;;;1.63;1.53;;;11.90;99.90;;;;;;5053942;28;20222;-68
2022/08/06 01:34:41;;;;;;;1.17;1.13;;;11.90;99.90;;;;;;5054494;28;20214;-68
2022/08/06 01:37:21;;;;;;;4.30;1.80;;;12.00;99.90;;;;;;5054258;28;20210;-68
2022/08/06 01:39:53;;;;;;;1.50;1.40;;;12.10;99.90;;;;;;5054302;28;20198;-68
2022/08/06 01:42:22;;;;;;;2.13;1.47;;;12.10;99.90;;;;;;5054302;28;20207;-68
2022/08/06 01:44:53;;;;;;;1.33;1.23;;;11.70;99.90;;;;;;5053755;28;20195;-68
2022/08/06 01:47:22;;;;;;;1.43;1.27;;;11.70;99.90;;;;;;5054297;28;20217;-68
2022/08/06 01:49:52;;;;;;;4.23;2.00;;;11.60;99.90;;;;;;5053527;28;20657;-68
2022/08/06 01:52:20;;;;;;;1.50;1.40;;;11.40;99.90;;;;;;5049515;28;20223;-68
2022/08/06 01:54:50;;;;;;;1.50;1.40;;;11.40;99.90;;;;;;5053675;28;20214;-68
2022/08/06 01:57:19;;;;;;;1.50;1.40;;;11.40;99.90;;;;;;5053997;28;20199;-68
2022/08/06 01:59:48;;;;;;;1.73;1.63;;;11.50;99.90;;;;;;5053668;28;20545;-68
2022/08/06 02:02:21;;;;;;;1.67;1.50;;;11.70;99.90;;;;;;5043382;28;20207;-68
2022/08/06 02:04:53;;;;;;;1.47;1.37;;;11.90;99.90;;;;;;5050757;28;20204;-68
2022/08/06 02:07:23;;;;;;;2.10;1.50;;;11.90;99.90;;;;;;5033626;28;20206;-68
2022/08/06 02:09:51;;;;;;;6.17;2.10;;;12.00;99.90;;;;;;5053138;28;20650;-68
2022/08/06 02:12:20;;;;;;;1.60;1.50;;;12.00;99.90;;;;;;5053269;28;20219;-68
2022/08/06 02:14:52;;;;;;;3.03;1.47;;;12.00;99.90;;;;;;5048588;28;20223;-68
2022/08/06 02:17:25;;;;;;;1.47;1.37;;;11.80;99.90;;;;;;5046939;28;20203;-68
2022/08/06 02:19:54;;;;;;;1.47;1.30;;;12.00;99.90;;;;;;5049802;28;20208;-69
2022/08/06 02:22:23;;;;;;;1.40;1.30;;;11.90;99.90;;;;;;5046874;28;20191;-68
2022/08/06 02:24:50;;;;;;;2.33;2.13;;;12.00;99.90;;;;;;5053586;28;20198;-68
2022/08/06 02:27:19;;;;;;;1.57;1.50;;;12.00;99.90;;;;;;5053154;28;20199;-68
2022/08/06 02:29:48;;;;;;;1.50;1.40;;;12.00;99.90;;;;;;5053582;28;20548;-75
2022/08/06 02:32:16;;;;;;;1.70;1.60;;;12.00;99.90;;;;;;5052839;28;20577;-74
2022/08/06 02:34:45;;;;;;;2.43;1.70;;;12.00;99.90;;;;;;5053036;28;20211;-74
2022/08/06 02:37:16;;;;;;;2.90;1.40;;;11.90;99.90;;;;;;5052926;28;20199;-74
2022/08/06 02:39:49;;;;;;;2.57;1.67;;;11.80;99.90;;;;;;5053173;28;20206;-74
2022/08/06 02:42:21;;;;;;;3.27;1.87;;;11.90;99.90;;;;;;5053011;28;20653;-74
2022/08/06 02:44:57;;;;;;;1.40;1.30;;;11.90;99.90;;;;;;5053204;28;20210;-74
2022/08/06 02:47:29;;;;;;;2.87;1.60;;;11.90;99.90;;;;;;5053077;28;20209;-75
2022/08/06 02:50:01;;;;;;;2.37;1.60;;;12.00;99.90;;;;;;5052707;28;20199;-74
2022/08/06 02:52:34;;;;;;;1.83;1.50;;;12.00;99.90;;;;;;5052442;28;20226;-74
2022/08/06 02:55:06;;;;;;;1.80;1.53;;;11.90;99.90;;;;;;5053013;28;20229;-74
2022/08/06 02:57:37;;;;;;;4.40;1.50;;;11.90;99.90;;;;;;5052681;28;20202;-74
2022/08/06 03:00:08;;;;;;;2.10;1.50;;;11.90;99.90;;;;;;5052575;28;20233;-74
2022/08/06 03:02:39;;;;;;;3.37;1.50;;;11.80;99.90;;;;;;5052565;28;20661;-74
2022/08/06 03:05:11;;;;;;;1.70;1.60;;;11.70;99.90;;;;;;5047340;28;20234;-74
2022/08/06 03:07:40;;;;;;;1.90;1.60;;;11.60;99.90;;;;;;5043025;28;20543;-74
2022/08/06 03:10:09;;;;;;;1.37;1.30;;;11.60;99.90;;;;;;5052400;28;20202;-74
2022/08/06 03:12:38;;;;;;;1.70;1.60;;;11.40;99.90;;;;;;5052628;28;20554;-74
2022/08/06 03:15:07;;;;;;;3.07;1.80;;;11.50;99.90;;;;;;5052225;28;20210;-74
2022/08/06 03:17:35;;;;;;;1.73;1.63;;;11.50;99.90;;;;;;5052788;28;20680;-74
2022/08/06 03:20:03;;;;;;;1.50;1.40;;;11.50;99.90;;;;;;5050663;28;20627;-74
2022/08/06 03:22:33;;;;;;;3.87;1.60;;;11.60;99.90;;;;;;5050058;28;20205;-74
2022/08/06 03:25:01;;;;;;;2.20;1.50;;;11.60;99.90;;;;;;5057053;28;20191;-74
2022/08/06 03:27:28;;;;;;;1.83;1.40;;;11.30;99.90;;;;;;5062466;28;20220;-74
2022/08/06 03:29:56;;;;;;;3.17;1.60;;;11.10;99.90;;;;;;5052382;28;20203;-74
2022/08/06 03:32:24;;;;;;;3.43;1.67;;;11.10;99.90;;;;;;5052090;28;20578;-73
2022/08/06 03:34:53;;;;;;;6.13;2.97;;;11.00;99.90;;;;;;5049541;28;20650;-73
2022/08/06 03:37:21;;;;;;;4.63;3.53;;;11.20;99.90;;;;;;5035290;28;20195;-73
2022/08/06 03:39:50;;;;;;;4.70;2.70;;;11.30;99.90;;;;;;5052425;28;20649;-73
2022/08/06 03:42:18;;;;;;;3.73;2.00;;;11.30;99.90;;;;;;5052082;28;20554;-73
2022/08/06 03:44:45;;;;;;;1.80;1.70;;;11.40;99.90;;;;;;5052445;28;20210;-73
2022/08/06 03:47:17;;;;;;;3.23;1.67;;;11.30;99.90;;;;;;5051950;28;20671;-73
2022/08/06 03:49:51;;;;;;;6.27;4.10;;;11.20;99.90;;;;;;5052530;28;20701;-73
2022/08/06 03:52:27;;;;;;;5.00;2.80;;;11.30;99.90;;;;;;5050689;28;20230;-73
2022/08/06 03:54:59;;;;;;;3.73;2.10;;;11.20;99.90;;;;;;5032037;28;20657;-74
2022/08/06 03:57:32;;;;;;;1.73;1.63;;;11.20;99.90;;;;;;5050516;28;20206;-74
2022/08/06 04:00:00;;;;;;;3.20;1.60;;;11.40;99.90;;;;;;5051465;28;20206;-74
2022/08/06 04:02:34;;;;;;;1.90;1.70;;;11.50;99.90;;;;;;5050692;28;20195;-73
2022/08/06 04:05:02;;;;;;;1.73;1.50;;;11.70;99.90;;;;;;5040614;28;20214;-73
2022/08/06 04:07:30;;;;;;;2.33;1.67;;;12.10;99.90;;;;;;5030422;28;20207;-73
2022/08/06 04:10:00;;;;;;;2.10;1.57;;;12.50;99.90;;;;;;5047120;28;20230;-73
2022/08/06 04:12:29;;;;;;;6.90;4.63;;;13.00;99.90;;;;;;5053471;28;20223;-73
2022/08/06 04:14:56;;;;;;;14.40;8.43;;;13.50;99.90;;;;;;5053901;28;20199;-74
2022/08/06 04:17:25;;;;;;;2.20;1.90;;;13.20;99.90;;;;;;5055528;28;20207;-73
2022/08/06 04:19:53;;;;;;;4.53;1.90;;;12.60;99.90;;;;;;5052001;28;20204;-79
2022/08/06 04:22:20;;;;;;;1.57;1.47;;;12.50;99.90;;;;;;5052137;28;20183;-79
2022/08/06 04:24:47;;;;;;;1.67;1.40;;;12.20;99.90;;;;;;5055591;28;20209;-78
2022/08/06 04:27:16;;;;;;;1.73;1.30;;;12.10;99.90;;;;;;5055871;28;20207;-78
2022/08/06 04:29:44;;;;;;;2.83;2.20;;;12.30;99.90;;;;;;5055653;28;20210;-77
2022/08/06 04:32:14;;;;;;;3.67;1.80;;;12.10;99.90;;;;;;5055471;28;20219;-78
2022/08/06 04:34:43;;;;;;;2.50;2.30;;;12.00;99.90;;;;;;5048583;28;20650;-78
2022/08/06 04:37:11;;;;;;;2.50;2.30;;;12.00;99.90;;;;;;5035577;28;20207;-78
2022/08/06 04:39:38;;;;;;;3.03;1.73;;;12.00;99.90;;;;;;5047183;28;20214;-78
2022/08/06 04:42:06;;;;;;;1.90;1.63;;;12.00;99.90;;;;;;5055513;28;20210;-78
2022/08/06 04:44:36;;;;;;;4.30;1.80;;;12.00;99.90;;;;;;5055109;28;20199;-78
2022/08/06 04:47:04;;;;;;;1.77;1.43;;;12.30;99.90;;;;;;5055691;28;20183;-79
2022/08/06 04:49:31;;;;;;;4.60;2.00;;;12.30;99.90;;;;;;5055170;28;20199;-78
2022/08/06 04:51:58;;;;;;;1.53;1.40;;;12.30;99.90;;;;;;5046324;28;20223;-78
2022/08/06 04:54:25;;;;;;;1.60;1.50;;;12.60;99.90;;;;;;5043756;28;20626;-78
2022/08/06 04:56:52;;;;;;;1.50;1.40;;;12.50;99.90;;;;;;5055292;28;20211;-78
2022/08/06 04:59:19;;;;;;;4.67;1.80;;;12.60;99.90;;;;;;5054992;28;20676;-79
2022/08/06 05:01:47;;;;;;;5.47;1.90;;;12.60;99.90;;;;;;5055060;28;20203;-78
2022/08/06 05:04:14;;;;;;;4.50;1.80;;;12.60;99.90;;;;;;5054917;28;20210;-78
2022/08/06 05:06:47;;;;;;;2.70;1.70;;;12.60;99.90;;;;;;5036383;28;20213;-78
2022/08/06 05:09:18;;;;;;;3.53;3.20;;;12.70;99.90;;;;;;5040156;28;20282;-78
2022/08/06 05:11:54;;;;;;;5.93;2.27;;;12.40;99.90;;;;;;5055208;28;20223;-78
2022/08/06 05:14:27;;;;;;;2.37;2.10;;;12.50;99.90;;;;;;5053270;28;20206;-78
2022/08/06 05:16:56;;;;;;;2.20;1.30;;;13.00;99.90;;;;;;5055327;28;20555;-78
2022/08/06 05:19:28;;;;;;;2.87;1.40;;;13.40;99.90;;;;;;5050356;28;20219;-78
2022/08/06 05:21:58;;;;;;;1.17;1.10;;;13.80;99.90;;;;;;5033973;28;20567;-78
2022/08/06 05:24:25;;;;;;;1.40;1.30;;;14.30;99.90;;;;;;5041380;28;20207;-78
2022/08/06 05:26:52;;;;;;;3.33;1.40;;;14.00;99.90;;;;;;5054815;28;20222;-77
2022/08/06 05:29:20;;;;;;;2.50;1.50;;;13.40;99.90;;;;;;5053500;28;20221;-77
2022/08/06 05:31:47;;;;;;;3.70;1.70;;;13.60;99.90;;;;;;5054205;28;20268;-73
2022/08/06 05:34:15;;;;;;;2.90;1.77;;;13.70;99.90;;;;;;5055009;28;20210;-73
2022/08/06 05:36:42;;;;;;;3.40;1.60;;;14.00;99.90;;;;;;5053637;28;20222;-73
2022/08/06 05:39:09;;;;;;;4.27;2.07;;;13.70;99.90;;;;;;5054250;28;20198;-76
2022/08/06 05:41:36;;;;;;;2.13;1.80;;;13.50;99.90;;;;;;5054047;28;20559;-71
2022/08/06 05:44:03;;;;;;;3.07;1.60;;;13.40;99.90;;;;;;5053896;28;20231;-70
2022/08/06 05:46:35;;;;;;;3.63;1.57;;;13.40;99.90;;;;;;5054445;28;20537;-70
2022/08/06 05:49:06;;;;;;;1.90;1.80;;;13.50;99.90;;;;;;5054004;28;20206;-70
2022/08/06 05:51:40;;;;;;;6.03;1.60;;;13.60;99.90;;;;;;5049835;28;20258;-70
2022/08/06 05:54:14;;;;;;;4.97;1.73;;;13.60;99.90;;;;;;5053937;28;20321;-70
2022/08/06 05:56:43;;;;;;;6.20;2.07;;;13.60;99.90;;;;;;5054007;28;20210;-70
2022/08/06 05:59:16;;;;;;;2.20;1.63;;;13.60;99.90;;;;;;5053888;28;20565;-70
2022/08/06 06:01:43;;;;;;;3.43;1.60;;;13.80;99.90;;;;;;5053873;28;20207;-72
2022/08/06 06:04:12;;;;;;;2.27;1.60;;;13.80;99.90;;;;;;5051671;28;20199;-70
2022/08/06 06:06:41;;;;;;;2.67;1.77;;;14.00;99.90;;;;;;5033004;28;20223;-70
2022/08/06 06:09:08;;;;;;;5.43;1.87;;;14.10;99.90;;;;;;5033743;28;20729;-70
2022/08/06 06:11:36;;;;;;;3.00;1.73;;;14.10;99.90;;;;;;5048622;28;20647;-70
2022/08/06 06:14:06;;;;;;;3.07;1.67;;;14.10;99.90;;;;;;5033798;28;20226;-70
2022/08/06 06:16:51;;;;;;;2.33;1.80;;;14.10;99.90;;;;;;5052710;28;20207;-70
2022/08/06 06:19:25;;;;;;;2.37;1.67;;;14.20;99.90;;;;;;5052799;28;20206;-70
2022/08/06 06:22:07;;;;;;;1.67;1.57;;;14.50;99.90;;;;;;5051767;28;20218;-71
2022/08/06 06:24:39;;;;;;;2.93;2.10;;;14.50;99.90;;;;;;5053351;28;20312;-70
2022/08/06 06:27:15;;;;;;;7.77;2.03;;;14.70;99.90;;;;;;5053623;28;20199;-70
2022/08/06 06:29:51;;;;;;;2.27;1.40;;;14.60;99.90;;;;;;5053364;28;20210;-70
2022/08/06 06:32:26;;;;;;;1.77;1.67;;;14.80;99.90;;;;;;5053167;28;20680;-70
2022/08/06 06:35:00;;;;;;;2.40;1.70;;;14.70;99.90;;;;;;5044061;28;20624;-70
2022/08/06 06:37:42;;;;;;;1.80;1.60;;;14.60;99.90;;;;;;5050499;28;20202;-70
2022/08/06 06:40:19;;;;;;;3.03;1.30;;;14.70;99.90;;;;;;5052987;28;20207;-71
2022/08/06 06:42:54;;;;;;;2.90;1.30;;;14.70;99.90;;;;;;5052048;28;20222;-70
2022/08/06 06:45:31;;;;;;;2.47;1.40;;;14.80;99.90;;;;;;5053361;28;20224;-70
2022/08/06 06:48:03;;;;;;;5.23;1.70;;;14.90;99.90;;;;;;5053213;28;20199;-70
2022/08/06 06:50:34;;;;;;;2.90;1.60;;;15.20;99.90;;;;;;5052355;28;20195;-70
2022/08/06 06:53:05;;;;;;;3.23;1.90;;;15.00;99.90;;;;;;5046536;28;20681;-70
2022/08/06 06:55:36;;;;;;;3.00;1.90;;;15.00;99.90;;;;;;5052721;28;20254;-71
2022/08/06 06:58:08;;;;;;;2.00;1.90;;;15.10;99.90;;;;;;5052916;28;20203;-70
2022/08/06 07:00:35;;;;;;;1.47;1.33;;;15.10;99.90;;;;;;5052224;28;20203;-70
2022/08/06 07:03:04;;;;;;;4.33;1.50;;;15.30;99.90;;;;;;5052629;28;20199;-70
2022/08/06 07:05:34;;;;;;;4.73;1.70;;;15.40;99.90;;;;;;5043715;28;20547;-70
2022/08/06 07:08:05;;;;;;;3.37;1.60;;;15.80;99.90;;;;;;5041951;28;20419;-70
2022/08/06 07:10:33;;;;;;;3.30;1.60;;;15.90;99.90;;;;;;5052560;28;20199;-71
2022/08/06 07:13:01;;;;;;;6.23;1.43;;;16.10;99.90;;;;;;5051841;28;20215;-70
2022/08/06 07:15:29;;;;;;;1.70;1.23;;;16.20;99.90;;;;;;5052631;28;20206;-70
2022/08/06 07:17:57;;;;;;;2.83;1.50;;;16.20;99.90;;;;;;5052200;28;20195;-70
2022/08/06 07:20:28;;;;;;;1.70;1.40;;;16.10;99.90;;;;;;5051099;28;20207;-70
2022/08/06 07:22:56;;;;;;;5.33;1.70;;;16.10;99.90;;;;;;5052129;28;20206;-70
2022/08/06 07:25:25;;;;;;;2.17;1.53;;;16.10;99.90;;;;;;5048957;28;20199;-70
2022/08/06 07:27:53;;;;;;;3.33;1.73;;;16.00;99.90;;;;;;5052424;28;20211;-70
2022/08/06 07:30:21;;;;;;;1.97;1.50;;;16.10;99.90;;;;;;5051871;28;20206;-70
2022/08/06 07:32:49;;;;;;;16.33;11.70;;;16.00;99.90;;;;;;5052602;28;20589;-70
2022/08/06 07:35:17;;;;;;;3.40;2.30;;;16.20;99.90;;;;;;5045564;28;20203;-70
2022/08/06 07:37:50;;;;;;;3.40;1.20;;;16.20;99.90;;;;;;5045154;28;20203;-70
2022/08/06 07:40:23;;;;;;;3.27;1.20;;;16.20;99.90;;;;;;5052110;28;20199;-70
2022/08/06 07:42:57;;;;;;;2.67;1.13;;;16.10;99.90;;;;;;5052289;28;20199;-70
2022/08/06 07:45:28;;;;;;;5.57;1.50;;;16.30;99.90;;;;;;5051536;28;20199;-70
2022/08/06 07:47:57;;;;;;;3.90;1.00;;;16.40;99.90;;;;;;5052019;28;20202;-70
2022/08/06 07:50:26;;;;;;;4.60;1.03;;;16.50;99.90;;;;;;5051952;28;20202;-71
2022/08/06 07:52:54;;;;;;;4.13;1.00;;;16.60;99.90;;;;;;5035844;28;20234;-68
2022/08/06 07:55:24;;;;;;;0.83;0.60;;;16.70;99.90;;;;;;5043291;28;20221;-69
2022/08/06 07:57:53;;;;;;;1.13;0.80;;;17.00;99.90;;;;;;5052403;28;20290;-68
2022/08/06 08:00:20;;;;;;;2.90;1.10;;;17.30;99.90;;;;;;5051567;28;20249;-68
2022/08/06 08:08:14;;;;;;;1.42;0.80;;;17.00;99.90;;;;;;5051536;28;20198;-69
2022/08/06 08:10:42;;;;;;;3.20;1.20;;;17.20;99.90;;;;;;5051474;28;20298;-68
2022/08/06 08:13:11;;;;;;;2.85;1.10;;;17.30;99.90;;;;;;5039137;28;20313;-68
2022/08/06 08:15:38;;;;;;;5.40;1.08;;;17.50;99.90;;;;;;5051650;28;20207;-68
2022/08/06 08:18:05;;;;;;;2.50;0.70;;;17.30;99.90;;;;;;5051276;28;20207;-68
2022/08/06 08:20:34;;;;;;;2.13;0.80;;;17.40;99.90;;;;;;5031590;28;20655;-69
2022/08/06 08:23:02;;;;;;;2.80;0.90;;;17.50;99.90;;;;;;5031951;28;20283;-68
2022/08/06 08:25:31;;;;;;;1.13;0.70;;;17.70;99.90;;;;;;5049277;28;20191;-68
2022/08/06 08:27:58;;;;;;;0.93;0.60;;;17.60;99.90;;;;;;5051889;28;20593;-69
2022/08/06 08:30:26;;;;;;;2.15;0.82;;;17.40;99.90;;;;;;5051199;28;20199;-69
2022/08/06 08:32:53;;;;;;;0.70;0.70;;;17.40;99.90;;;;;;5051912;28;20222;-69
2022/08/06 08:35:20;;;;;;;1.55;0.73;;;17.30;99.90;;;;;;5046327;28;20202;-69
2022/08/06 08:37:47;;;;;;;1.70;0.50;;;17.40;99.90;;;;;;5051113;28;20200;-69
2022/08/06 08:40:14;;;;;;;2.28;0.95;;;17.60;99.90;;;;;;5051357;28;20221;-69
2022/08/06 08:42:44;;;;;;;2.15;0.70;;;17.70;99.20;;;;;;5051246;28;20195;-69
2022/08/06 08:45:12;;;;;;;2.47;0.75;;;17.60;99.90;;;;;;5051347;28;20195;-69
2022/08/06 08:47:44;;;;;;;0.75;0.50;;;17.70;98.40;;;;;;5051848;28;20310;-69
2022/08/06 08:50:12;;;;;;;1.42;0.50;;;17.70;97.30;;;;;;5051421;28;20203;-69
2022/08/06 08:52:44;;;;;;;1.17;0.50;;;17.80;90.10;;;;;;5048104;28;20203;-69
2022/08/06 08:55:14;;;;;;;2.25;0.68;;;17.90;91.70;;;;;;5050525;28;20661;-69
2022/08/06 08:57:42;;;;;;;4.28;0.65;;;17.70;83.20;;;;;;5053800;28;20213;-68
2022/08/06 09:00:10;;;;;;;0.38;0.38;;;17.60;87.50;;;;;;5054659;28;20602;-69
2022/08/06 09:02:38;;;;;;;2.88;0.75;;;17.80;99.60;;;;;;5055092;28;20264;-69
2022/08/06 09:05:06;;;;;;;1.75;0.60;;;18.00;79.40;;;;;;5049741;28;20199;-69
2022/08/06 09:07:34;;;;;;;0.47;0.45;;;18.30;74.60;;;;;;5036133;28;20208;-69
2022/08/06 09:10:02;;;;;;;1.98;0.65;;;18.80;75.70;;;;;;5054493;28;20238;-70
2022/08/06 09:12:28;;;;;;;2.00;0.63;;;19.10;65.70;;;;;;5054753;28;20206;-69
2022/08/06 09:14:55;;;;;;;1.80;0.20;;;19.60;60.50;;;;;;5054988;28;20222;-69
2022/08/06 09:17:23;;;;;;;1.52;0.65;;;19.50;55.40;;;;;;5054835;28;20203;-69
2022/08/06 09:19:50;;;;;;;1.90;0.70;;;19.80;53.40;;;;;;5046631;28;20624;-69
2022/08/06 09:22:18;;;;;;;1.52;0.52;;;19.90;50.90;;;;;;5048118;28;20203;-69
2022/08/06 09:24:45;;;;;;;0.95;0.47;;;20.40;46.20;;;;;;5042148;28;20200;-70
2022/08/06 09:27:15;;;;;;;1.27;0.38;;;20.90;37.80;;;;;;5054479;28;20664;-69
2022/08/06 09:29:50;;;;;;;1.58;1.05;;;20.80;34.00;;;;;;5054574;28;20187;-69
2022/08/06 09:32:42;;;;;;;1.63;0.75;;;20.80;37.30;;;;;;5054461;28;20202;-69
2022/08/06 09:35:20;;;;;;;0.93;0.70;;;20.50;40.90;;;;;;5034470;28;20578;-69
2022/08/06 09:37:49;;;;;;;1.10;0.82;;;20.50;40.90;;;;;;5046723;28;20233;-69
2022/08/06 09:40:18;;;;;;;1.85;0.77;;;20.80;37.70;;;;;;5054363;28;20207;-69
2022/08/06 09:42:49;;;;;;;1.90;0.80;;;21.70;30.00;;;;;;5054030;28;20203;-69
2022/08/06 09:45:18;;;;;;;1.35;0.70;;;22.00;28.20;;;;;;5054769;28;20199;-69
2022/08/06 09:47:46;;;;;;;1.77;0.70;;;22.20;24.60;;;;;;5053758;28;20199;-70
2022/08/06 09:50:14;;;;;;;3.75;0.68;;;22.60;24.90;;;;;;5041317;28;20207;-69
2022/08/06 09:52:41;;;;;;;1.85;0.80;;;22.30;22.50;;;;;;5034259;28;20211;-69
2022/08/06 09:55:29;;;;;;;0.73;0.47;;;22.70;23.30;;;;;;5048612;28;20223;-69
2022/08/06 09:57:56;;;;;;;2.08;0.80;;;21.80;24.20;;;;;;5034126;28;20199;-69
2022/08/06 10:00:28;;;;;;;1.85;0.57;;;22.10;26.00;;;;;;5049669;28;20211;-69
2022/08/06 10:02:58;;;;;;;1.10;0.90;;;22.40;23.00;;;;;;5054139;28;20225;-69
2022/08/06 10:05:26;;;;;;;2.15;0.80;;;21.80;25.20;;;;;;5053506;28;20664;-69
2022/08/06 10:08:08;;;;;;;1.40;0.60;;;21.60;24.10;;;;;;5041676;28;20206;-69
2022/08/06 10:10:45;;;;;;;0.52;0.52;;;21.30;24.80;;;;;;5050255;28;20462;-69
2022/08/06 10:13:20;;;;;;;1.85;0.70;;;20.80;26.30;;;;;;5036287;28;20689;-69
2022/08/06 10:15:49;;;;;;;3.35;0.47;;;20.80;25.60;;;;;;5051774;28;20202;-69
2022/08/06 10:18:34;;;;;;;1.88;0.60;;;21.70;24.50;;;;;;5053606;28;20198;-68
2022/08/06 10:21:03;;;;;;;1.60;0.73;;;22.60;23.70;;;;;;5040256;28;20207;-69
2022/08/06 10:23:33;;;;;;;0.63;0.57;;;21.70;20.40;;;;;;5037138;28;20193;-70
2022/08/06 10:26:02;;;;;;;0.82;0.82;;;21.70;19.60;;;;;;5053003;28;20198;-69
2022/08/06 10:28:32;;;;;;;1.13;0.50;;;22.20;18.20;;;;;;5053765;28;20666;-69
2022/08/06 10:31:01;;;;;;;1.48;0.70;;;22.00;20.10;;;;;;5052949;28;20609;-70
2022/08/06 10:33:32;;;;;;;1.67;0.75;;;21.70;18.80;;;;;;5053123;28;20214;-69
2022/08/06 10:36:04;;;;;;;1.13;0.77;;;21.70;24.10;;;;;;5035489;28;20554;-69
2022/08/06 10:38:35;;;;;;;0.63;0.45;;;21.80;20.90;;;;;;5040070;28;20198;-70
2022/08/06 10:41:07;;;;;;;1.35;0.60;;;21.00;16.00;;;;;;5052964;28;20209;-69
2022/08/06 10:43:36;;;;;;;2.80;0.73;;;21.10;24.60;;;;;;5053340;28;20187;-69
2022/08/06 10:46:04;;;;;;;3.70;0.73;;;21.60;20.10;;;;;;5053071;28;20203;-70
2022/08/06 10:48:32;;;;;;;2.17;0.60;;;21.60;18.60;;;;;;5053183;28;20683;-69
2022/08/06 10:50:59;;;;;;;0.75;0.50;;;21.50;16.50;;;;;;5052657;28;20653;-69
2022/08/06 10:53:26;;;;;;;1.15;0.43;;;21.70;17.60;;;;;;5033139;28;20219;-69
2022/08/06 10:55:53;;;;;;;2.30;0.70;;;22.30;17.70;;;;;;5044110;28;20207;-66
2022/08/06 10:58:22;;;;;;;0.63;0.63;;;21.80;13.60;;;;;;5052526;28;20202;-69
2022/08/06 11:00:49;;;;;;;1.63;0.50;;;22.00;17.90;;;;;;5052579;28;20661;-69
2022/08/06 11:03:22;;;;;;;0.82;0.60;;;22.60;18.30;;;;;;5052624;28;20202;-66
2022/08/06 11:06:01;;;;;;;3.67;0.73;;;22.60;13.30;;;;;;5046438;28;20195;-69
2022/08/06 11:08:51;;;;;;;2.15;0.77;;;22.20;13.80;;;;;;5052112;28;20202;-69
2022/08/06 11:11:36;;;;;;;1.42;0.70;;;22.90;14.50;;;;;;5051226;28;20206;-69
2022/08/06 11:14:08;;;;;;;0.52;0.43;;;23.30;11.70;;;;;;5051579;28;20227;-69
2022/08/06 11:16:35;;;;;;;0.60;0.57;;;23.10;13.20;;;;;;5046287;28;20195;-67
2022/08/06 11:19:05;;;;;;;1.45;0.90;;;22.90;10.20;;;;;;5052263;28;20242;-69
2022/08/06 11:21:40;;;;;;;3.22;0.77;;;22.20;10.10;;;;;;5048587;28;20198;-66
2022/08/06 11:24:08;;;;;;;0.50;0.50;;;22.30;12.10;;;;;;5048501;28;20260;-67
2022/08/06 11:26:36;;;;;;;1.40;0.57;;;22.50;9.80;;;;;;5051524;28;20203;-66
2022/08/06 11:29:06;;;;;;;0.43;0.43;;;23.00;9.10;;;;;;5051344;28;20217;-69
2022/08/06 11:31:36;;;;;;;1.60;0.40;;;22.80;5.80;;;;;;5052678;28;20623;-69
2022/08/06 11:34:05;;;;;;;1.45;0.47;;;23.50;10.00;;;;;;5051452;28;20254;-69
2022/08/06 11:36:54;;;;;;;2.92;0.60;;;23.70;10.50;;;;;;5045706;28;20549;-69
2022/08/06 11:39:22;;;;;;;2.88;0.80;;;23.60;9.70;;;;;;5052202;28;20252;-68
2022/08/06 11:41:52;;;;;;;1.80;0.60;;;23.20;13.70;;;;;;5032039;28;20701;-68
2022/08/06 11:44:21;;;;;;;0.40;0.40;;;22.10;14.20;;;;;;5032659;28;20206;-69
2022/08/06 11:46:49;;;;;;;0.98;0.50;;;22.60;10.50;;;;;;5051669;28;20201;-69
2022/08/06 11:49:22;;;;;;;0.50;0.50;;;22.80;5.00;;;;;;5050140;28;20202;-69
2022/08/06 11:51:54;;;;;;;0.98;0.80;;;22.90;6.90;;;;;;5051456;28;20202;-69
2022/08/06 11:54:23;;;;;;;0.57;0.50;;;22.70;10.10;;;;;;5051775;28;20225;-69
2022/08/06 11:57:27;;;;;;;0.88;0.50;;;22.70;7.90;;;;;;5037231;28;20596;-69
2022/08/06 12:00:09;;;;;;;0.38;0.38;;;21.70;9.50;;;;;;5056466;28;20280;-69
2022/08/06 12:03:00;;;;;;;2.28;0.57;;;21.10;9.20;;;;;;5062310;28;20247;-69
2022/08/06 12:05:44;;;;;;;0.90;0.30;;;22.20;7.00;;;;;;5041118;28;20214;-69
2022/08/06 12:08:20;;;;;;;1.02;0.55;;;23.20;7.40;;;;;;5046742;28;20206;-69
2022/08/06 12:11:35;;;;;;;0.85;0.52;;;24.00;2.60;;;;;;5051542;28;20567;-69
2022/08/06 12:14:02;;;;;;;2.10;1.00;;;24.00;1.00;;;;;;5031721;28;20223;-68
2022/08/06 12:16:36;;;;;;;1.88;0.50;;;24.40;1.00;;;;;;5047111;28;20199;-69
2022/08/06 12:19:06;;;;;;;0.52;0.52;;;24.90;1.00;;;;;;5052032;28;20221;-69
2022/08/06 12:21:34;;;;;;;0.55;0.55;;;24.30;1.00;;;;;;5054647;28;20230;-69
2022/08/06 12:24:02;;;;;;;3.88;0.60;;;25.10;1.00;;;;;;5061090;28;20197;-69
2022/08/06 12:26:33;;;;;;;2.25;0.60;;;24.60;1.00;;;;;;5060299;28;20213;-69
2022/08/06 12:29:04;;;;;;;0.90;0.50;;;23.90;1.40;;;;;;5054447;28;20264;-69
2022/08/06 12:31:35;;;;;;;0.60;0.45;;;22.70;2.70;;;;;;5051997;28;20203;-69
2022/08/06 12:34:02;;;;;;;1.20;0.70;;;22.10;9.50;;;;;;5054194;28;20223;-69
2022/08/06 12:36:31;;;;;;;2.55;0.70;;;21.70;6.10;;;;;;5055307;28;20199;-69
2022/08/06 12:39:00;;;;;;;2.35;0.65;;;22.00;3.40;;;;;;5055290;28;20575;-69
2022/08/06 12:41:35;;;;;;;1.05;0.50;;;22.40;1.80;;;;;;5055645;28;20207;-68
2022/08/06 12:44:02;;;;;;;4.30;0.90;;;22.30;4.00;;;;;;5055295;28;20563;-68
2022/08/06 12:46:29;;;;;;;0.40;0.40;;;22.20;5.90;;;;;;5055615;28;20232;-69
2022/08/06 12:48:57;;;;;;;0.35;0.28;;;22.40;7.80;;;;;;5055174;28;20210;-69
2022/08/06 12:51:24;;;;;;;1.00;0.80;;;23.30;1.00;;;;;;5055082;28;20211;-68
2022/08/06 12:53:52;;;;;;;1.15;0.55;;;24.30;1.00;;;;;;5055253;28;20543;-69
2022/08/06 12:56:22;;;;;;;2.50;1.15;;;24.40;1.00;;;;;;5055488;28;20629;-68
2022/08/06 12:58:50;;;;;;;2.15;0.50;;;23.50;1.90;;;;;;5055251;28;20203;-68
2022/08/06 13:01:19;;;;;;;0.98;0.73;;;23.30;1.00;;;;;;5054211;28;20199;-68
2022/08/06 13:03:50;;;;;;;1.75;0.40;;;23.10;1.00;;;;;;5055176;28;20202;-68
2022/08/06 13:06:21;;;;;;;1.52;0.47;;;22.70;2.70;;;;;;5039670;28;20211;-69
2022/08/06 13:08:49;;;;;;;0.80;0.40;;;22.90;1.00;;;;;;5054789;28;20641;-69
2022/08/06 13:11:16;;;;;;;0.88;0.45;;;22.80;1.40;;;;;;5054974;28;20202;-68